Time;durP1;ratioP1;P1;durP2;ratioP2;P2;SDS_P1;SDS_P2;PMS_P1;PMS_P2;Temp;Humidity;BMP_temperature;BMP_pressure;BME280_temperature;BME280_humidity;BME280_pressure;Samples;Min_cycle;Max_cycle;Signal;HPM_P1;HPM_P2
2022/12/20 00:00:51;;;;;;;3.23;2.93;;;10.60;99.90;;;;;;5044979;28;20416;-40
2022/12/20 00:03:17;;;;;;;4.20;3.37;;;10.60;99.90;;;;;;5033170;28;20195;-40
2022/12/20 00:05:43;;;;;;;4.53;3.30;;;10.60;99.90;;;;;;5029501;28;20232;-39
2022/12/20 00:08:09;;;;;;;3.63;2.80;;;10.50;99.90;;;;;;5034422;28;20289;-41
2022/12/20 00:10:36;;;;;;;3.57;3.00;;;10.60;99.90;;;;;;5038358;28;20545;-39
2022/12/20 00:13:02;;;;;;;3.50;2.90;;;10.50;99.90;;;;;;5028162;28;20425;-39
2022/12/20 00:15:28;;;;;;;3.23;2.90;;;10.60;99.90;;;;;;5030495;28;20488;-40
2022/12/20 00:17:53;;;;;;;5.07;3.23;;;10.60;99.90;;;;;;5033364;28;20435;-40
2022/12/20 00:20:19;;;;;;;3.13;2.83;;;10.60;99.90;;;;;;5028217;28;20186;-41
2022/12/20 00:22:45;;;;;;;3.77;3.33;;;10.60;99.90;;;;;;5028209;28;20229;-40
2022/12/20 00:25:10;;;;;;;3.33;2.50;;;10.70;99.90;;;;;;5028518;28;20222;-40
2022/12/20 00:27:36;;;;;;;2.50;2.27;;;10.60;99.90;;;;;;5028499;28;20659;-39
2022/12/20 00:30:03;;;;;;;3.83;2.50;;;10.70;99.90;;;;;;5028461;28;20209;-41
2022/12/20 00:32:29;;;;;;;4.97;2.80;;;10.70;99.90;;;;;;5027960;28;20178;-40
2022/12/20 00:34:54;;;;;;;5.10;3.07;;;10.70;99.90;;;;;;5028735;28;20421;-38
2022/12/20 00:37:20;;;;;;;4.90;3.10;;;10.70;99.90;;;;;;5028015;28;20206;-40
2022/12/20 00:39:45;;;;;;;3.47;3.17;;;10.70;99.90;;;;;;5037299;28;20248;-39
2022/12/20 00:42:11;;;;;;;3.60;2.70;;;10.70;99.90;;;;;;5027862;28;20194;-41
2022/12/20 00:44:37;;;;;;;3.10;2.23;;;10.70;99.90;;;;;;5028488;28;20209;-42
2022/12/20 00:47:02;;;;;;;3.53;2.40;;;10.70;99.90;;;;;;5027696;28;20198;-38
2022/12/20 00:49:28;;;;;;;3.40;2.90;;;10.80;99.90;;;;;;5027925;28;20281;-39
2022/12/20 00:51:53;;;;;;;5.47;2.60;;;10.70;99.90;;;;;;5028274;28;20442;-40
2022/12/20 00:54:19;;;;;;;3.10;2.33;;;10.80;99.90;;;;;;5028060;28;20260;-40
2022/12/20 00:56:45;;;;;;;3.50;2.20;;;10.70;99.90;;;;;;5028401;28;20706;-39
2022/12/20 00:59:10;;;;;;;2.50;2.10;;;10.80;99.90;;;;;;5027344;28;20189;-41
2022/12/20 01:01:36;;;;;;;3.50;2.30;;;10.70;99.90;;;;;;5028100;28;20182;-39
2022/12/20 01:04:02;;;;;;;3.30;2.73;;;10.70;99.90;;;;;;5027495;28;20196;-39
2022/12/20 01:06:29;;;;;;;2.33;2.13;;;10.80;99.90;;;;;;5028517;28;20191;-37
2022/12/20 01:08:55;;;;;;;2.47;2.10;;;10.80;99.90;;;;;;5026382;28;20791;-41
2022/12/20 01:11:26;;;;;;;5.47;2.57;;;10.80;99.90;;;;;;5027889;28;20413;-38
2022/12/20 01:13:54;;;;;;;2.77;2.50;;;10.80;99.90;;;;;;5028074;28;20417;-40
2022/12/20 01:16:23;;;;;;;4.90;2.57;;;10.90;99.90;;;;;;5036651;28;20456;-38
2022/12/20 01:18:50;;;;;;;2.60;2.33;;;10.80;99.90;;;;;;5047604;28;20409;-40
2022/12/20 01:21:18;;;;;;;2.47;2.20;;;10.80;99.90;;;;;;5047570;28;20496;-39
2022/12/20 01:23:44;;;;;;;2.80;2.10;;;10.90;99.90;;;;;;5047610;28;20960;-40
2022/12/20 01:26:13;;;;;;;2.30;2.10;;;10.90;99.90;;;;;;5047941;28;20439;-39
2022/12/20 01:28:41;;;;;;;4.70;2.80;;;11.00;99.90;;;;;;5046966;28;20411;-40
2022/12/20 01:31:15;;;;;;;3.60;2.43;;;11.00;99.90;;;;;;5052096;28;20635;-39
2022/12/20 01:33:41;;;;;;;4.90;2.70;;;11.00;99.90;;;;;;5051443;28;20774;-40
2022/12/20 01:36:12;;;;;;;2.80;2.03;;;11.00;99.90;;;;;;5051835;28;20800;-39
2022/12/20 01:38:38;;;;;;;3.03;2.13;;;11.00;99.90;;;;;;5049592;28;20503;-41
2022/12/20 01:41:04;;;;;;;2.50;2.30;;;11.00;99.90;;;;;;5051629;28;20745;-40
2022/12/20 01:43:50;;;;;;;3.50;2.70;;;11.00;99.90;;;;;;5051186;28;20427;-36
2022/12/20 01:46:17;;;;;;;2.90;2.47;;;11.00;99.90;;;;;;5051654;28;20166;-40
2022/12/20 01:48:48;;;;;;;3.30;2.73;;;11.00;99.90;;;;;;5051317;28;20517;-40
2022/12/20 01:51:14;;;;;;;3.00;2.20;;;11.00;99.90;;;;;;5051322;28;20419;-39
2022/12/20 01:53:40;;;;;;;2.43;2.23;;;11.00;99.90;;;;;;5051589;28;20419;-40
2022/12/20 01:56:07;;;;;;;3.37;2.47;;;11.00;99.90;;;;;;5051141;28;20958;-41
2022/12/20 01:58:36;;;;;;;4.20;3.00;;;11.00;99.90;;;;;;5051362;28;20181;-38
2022/12/20 02:01:01;;;;;;;3.00;2.70;;;11.00;99.90;;;;;;5049509;28;20946;-40
2022/12/20 02:03:31;;;;;;;2.40;1.90;;;11.00;99.90;;;;;;5051020;28;20418;-39
2022/12/20 02:05:57;;;;;;;3.10;2.43;;;11.00;99.90;;;;;;5051031;28;20201;-38
2022/12/20 02:08:22;;;;;;;3.23;2.93;;;11.00;99.90;;;;;;5048251;28;21020;-40
2022/12/20 02:11:01;;;;;;;2.73;2.53;;;11.00;99.90;;;;;;5051457;28;20253;-39
2022/12/20 02:13:41;;;;;;;3.40;2.80;;;11.00;99.90;;;;;;5050603;28;20177;-39
2022/12/20 02:16:06;;;;;;;3.27;2.60;;;11.00;99.90;;;;;;5051005;28;20447;-40
2022/12/20 02:18:41;;;;;;;2.90;2.63;;;10.90;99.90;;;;;;5050125;28;20934;-38
2022/12/20 02:21:36;;;;;;;4.40;2.43;;;10.90;99.90;;;;;;5049675;28;20173;-40
2022/12/20 02:24:20;;;;;;;3.90;2.80;;;10.90;99.90;;;;;;5050258;28;20408;-36
2022/12/20 02:26:55;;;;;;;4.77;3.00;;;10.90;99.90;;;;;;5050879;28;20453;-38
2022/12/20 02:30:13;;;;;;;4.17;3.57;;;10.90;99.90;;;;;;5050206;28;20415;-38
2022/12/20 02:32:51;;;;;;;3.47;3.17;;;10.80;99.90;;;;;;5036622;28;20420;-39
2022/12/20 02:35:23;;;;;;;3.73;3.33;;;10.80;99.90;;;;;;5050304;28;20408;-38
2022/12/20 02:37:54;;;;;;;5.73;3.40;;;10.80;99.90;;;;;;5050393;28;20714;-40
2022/12/20 02:40:28;;;;;;;5.10;3.33;;;10.70;99.90;;;;;;5049480;28;20503;-39
2022/12/20 02:43:00;;;;;;;3.67;3.27;;;10.70;99.90;;;;;;5050251;28;20923;-38
2022/12/20 02:45:32;;;;;;;3.60;2.83;;;10.70;99.90;;;;;;5050707;28;20781;-40
2022/12/20 02:48:07;;;;;;;3.87;3.13;;;10.70;99.90;;;;;;5050158;28;20436;-36
2022/12/20 02:50:38;;;;;;;3.97;3.13;;;10.70;99.90;;;;;;5050228;28;20447;-39
2022/12/20 02:53:06;;;;;;;4.67;3.60;;;10.70;99.90;;;;;;5049674;28;20498;-40
2022/12/20 02:55:42;;;;;;;4.17;3.60;;;10.60;99.90;;;;;;5050317;28;20797;-38
2022/12/20 02:58:26;;;;;;;5.77;3.20;;;10.70;99.90;;;;;;5049625;28;20767;-39
2022/12/20 03:00:54;;;;;;;6.63;3.70;;;10.60;99.90;;;;;;5050343;28;20407;-39
2022/12/20 03:03:23;;;;;;;3.60;3.30;;;10.60;99.90;;;;;;5049356;28;20462;-39
2022/12/20 03:05:54;;;;;;;5.80;3.63;;;10.60;99.90;;;;;;5050112;28;20935;-39
2022/12/20 03:08:20;;;;;;;4.60;3.70;;;10.60;99.90;;;;;;5048814;28;20419;-37
2022/12/20 03:10:46;;;;;;;4.33;3.57;;;10.50;99.90;;;;;;5049392;28;20424;-40
2022/12/20 03:13:12;;;;;;;5.43;3.70;;;10.60;99.90;;;;;;5049550;28;20416;-39
2022/12/20 03:15:38;;;;;;;3.93;3.60;;;10.50;99.90;;;;;;5049722;28;20452;-39
2022/12/20 03:18:03;;;;;;;4.90;3.80;;;10.50;99.90;;;;;;5049780;28;20445;-39
2022/12/20 03:20:29;;;;;;;3.80;3.40;;;10.50;99.90;;;;;;5049288;28;20799;-40
2022/12/20 03:22:55;;;;;;;3.63;3.30;;;10.50;99.90;;;;;;5049883;28;20582;-38
2022/12/20 03:25:21;;;;;;;4.30;3.90;;;10.50;99.90;;;;;;5049361;28;20626;-41
2022/12/20 03:27:46;;;;;;;4.93;3.50;;;10.50;99.90;;;;;;5049832;28;20180;-38
2022/12/20 03:30:13;;;;;;;6.13;4.33;;;10.50;99.90;;;;;;5049691;28;20175;-41
2022/12/20 03:32:38;;;;;;;4.47;4.07;;;10.40;99.90;;;;;;5049046;28;20213;-40
2022/12/20 03:35:04;;;;;;;4.37;3.97;;;10.40;99.90;;;;;;5049748;28;20451;-40
2022/12/20 03:37:30;;;;;;;4.10;3.70;;;10.40;99.90;;;;;;5049481;28;20215;-40
2022/12/20 03:39:55;;;;;;;4.43;4.03;;;10.30;99.90;;;;;;5049096;28;20427;-39
2022/12/20 03:42:21;;;;;;;4.63;4.10;;;10.30;99.90;;;;;;5049250;28;20174;-37
2022/12/20 03:44:47;;;;;;;3.87;3.50;;;10.30;99.90;;;;;;5049309;28;20178;-39
2022/12/20 03:47:12;;;;;;;3.90;3.57;;;10.20;99.90;;;;;;5049476;28;20190;-39
2022/12/20 03:49:38;;;;;;;4.03;3.53;;;10.20;99.90;;;;;;5048619;28;20243;-39
2022/12/20 03:52:04;;;;;;;4.37;3.97;;;10.20;99.90;;;;;;5048598;28;20264;-37
2022/12/20 03:54:29;;;;;;;4.50;3.27;;;10.30;99.90;;;;;;5047989;28;20189;-41
2022/12/20 03:56:55;;;;;;;5.53;3.80;;;10.20;99.90;;;;;;5049472;28;20217;-37
2022/12/20 03:59:20;;;;;;;4.50;3.77;;;10.20;99.90;;;;;;5048576;28;20200;-40
2022/12/20 04:01:46;;;;;;;4.53;3.70;;;10.20;99.90;;;;;;5049173;28;20583;-37
2022/12/20 04:04:13;;;;;;;6.37;3.87;;;10.10;99.90;;;;;;5048761;28;20288;-36
2022/12/20 04:06:40;;;;;;;4.40;4.00;;;10.20;99.90;;;;;;5048817;28;20181;-40
2022/12/20 04:09:06;;;;;;;4.43;3.90;;;10.20;99.90;;;;;;5047441;28;20495;-37
2022/12/20 04:11:32;;;;;;;4.10;3.80;;;10.20;99.90;;;;;;5048641;28;20502;-38
2022/12/20 04:13:57;;;;;;;4.17;3.70;;;10.20;99.90;;;;;;5048591;28;20491;-39
2022/12/20 04:16:26;;;;;;;4.67;3.70;;;10.10;99.90;;;;;;5046971;28;20682;-37
2022/12/20 04:18:52;;;;;;;4.40;4.00;;;10.20;99.90;;;;;;5048735;28;20198;-41
2022/12/20 04:21:27;;;;;;;4.37;3.97;;;10.10;99.90;;;;;;5048731;28;20408;-41
2022/12/20 04:23:53;;;;;;;4.60;4.20;;;10.10;99.90;;;;;;5048193;28;20212;-37
2022/12/20 04:26:19;;;;;;;3.97;3.57;;;10.10;99.90;;;;;;5048834;28;20448;-40
2022/12/20 04:28:44;;;;;;;4.53;4.07;;;10.10;99.90;;;;;;5047990;28;20190;-40
2022/12/20 04:31:10;;;;;;;6.13;3.80;;;10.10;99.90;;;;;;5048502;28;20609;-35
2022/12/20 04:33:36;;;;;;;4.83;4.10;;;10.10;99.90;;;;;;5047944;28;20182;-37
2022/12/20 04:36:02;;;;;;;3.87;3.40;;;10.00;99.90;;;;;;5048225;28;20214;-37
2022/12/20 04:38:28;;;;;;;4.40;4.00;;;10.00;99.90;;;;;;5047889;28;20280;-40
2022/12/20 04:40:54;;;;;;;4.73;4.27;;;10.00;99.90;;;;;;5048159;28;20496;-39
2022/12/20 04:43:21;;;;;;;6.10;4.20;;;10.00;99.90;;;;;;5048285;28;20231;-39
2022/12/20 04:45:49;;;;;;;6.43;4.77;;;10.00;99.90;;;;;;5048005;28;20424;-38
2022/12/20 04:48:15;;;;;;;4.30;3.70;;;10.00;99.90;;;;;;5048502;28;20797;-39
2022/12/20 04:50:41;;;;;;;4.53;4.00;;;10.00;99.90;;;;;;5046111;28;20431;-37
2022/12/20 04:55:54;;;;;;;4.53;4.13;;;9.90;99.90;;;;;;5046844;28;20464;-40
2022/12/20 04:58:19;;;;;;;4.60;4.00;;;9.90;99.90;;;;;;5048381;28;20419;-38
2022/12/20 05:00:45;;;;;;;5.13;4.40;;;9.90;99.90;;;;;;5047986;28;20625;-39
2022/12/20 05:03:11;;;;;;;5.63;4.27;;;9.90;99.90;;;;;;5047172;28;20182;-40
2022/12/20 05:05:36;;;;;;;4.97;4.40;;;9.90;99.90;;;;;;5048177;28;20202;-39
2022/12/20 05:08:03;;;;;;;5.13;3.90;;;9.90;99.90;;;;;;5047136;28;20236;-39
2022/12/20 05:10:29;;;;;;;5.70;4.30;;;9.90;99.90;;;;;;5048278;28;20904;-39
2022/12/20 05:12:54;;;;;;;4.70;4.30;;;9.90;99.90;;;;;;5047407;28;20649;-41
2022/12/20 05:15:20;;;;;;;5.67;4.60;;;9.90;99.90;;;;;;5048132;28;20220;-39
2022/12/20 05:17:46;;;;;;;6.23;4.57;;;9.90;99.90;;;;;;5047659;28;20292;-41
2022/12/20 05:20:12;;;;;;;5.83;4.10;;;9.90;99.90;;;;;;5047460;28;20182;-39
2022/12/20 05:28:07;;;;;;;4.57;4.10;;;9.90;99.90;;;;;;5047629;28;20416;-37
2022/12/20 05:30:32;;;;;;;6.33;4.43;;;9.90;99.90;;;;;;5047329;28;20446;-39
2022/12/20 05:32:58;;;;;;;5.57;4.30;;;9.90;99.90;;;;;;5047547;28;20201;-37
2022/12/20 05:35:24;;;;;;;4.40;4.00;;;9.90;99.90;;;;;;5047716;28;20448;-39
2022/12/20 05:37:49;;;;;;;6.10;4.50;;;9.90;99.90;;;;;;5047548;28;20192;-40
2022/12/20 05:40:16;;;;;;;5.63;4.63;;;9.90;99.90;;;;;;5041901;28;20198;-41
2022/12/20 05:42:42;;;;;;;5.50;4.30;;;9.90;99.90;;;;;;5045392;28;20186;-41
2022/12/20 05:45:08;;;;;;;5.57;4.60;;;9.90;99.90;;;;;;5047341;28;20861;-40
2022/12/20 05:47:34;;;;;;;5.57;4.97;;;9.90;99.90;;;;;;5038100;28;20280;-40
2022/12/20 05:49:59;;;;;;;5.57;4.80;;;9.90;99.90;;;;;;5047310;28;20757;-37
2022/12/20 05:52:25;;;;;;;6.60;4.30;;;9.90;99.90;;;;;;5047551;28;20185;-40
2022/12/20 05:54:51;;;;;;;5.70;4.23;;;9.90;99.90;;;;;;5047682;28;20217;-41
2022/12/20 05:57:17;;;;;;;4.63;4.23;;;9.80;99.90;;;;;;5047622;28;20962;-40
2022/12/20 05:59:43;;;;;;;4.67;4.17;;;9.80;99.90;;;;;;5047163;28;20575;-42
2022/12/20 06:02:09;;;;;;;5.40;3.87;;;9.80;99.90;;;;;;5047983;28;20503;-42
2022/12/20 06:04:37;;;;;;;4.60;4.20;;;9.80;99.90;;;;;;5047214;28;20196;-38
2022/12/20 06:07:04;;;;;;;6.23;4.67;;;9.80;99.90;;;;;;5047654;28;20435;-40
2022/12/20 06:09:30;;;;;;;6.13;4.50;;;9.90;99.90;;;;;;5046615;28;20420;-41
2022/12/20 06:11:57;;;;;;;5.03;4.30;;;9.90;99.90;;;;;;5047356;28;20506;-37
2022/12/20 06:14:22;;;;;;;4.67;4.27;;;9.90;99.90;;;;;;5047362;28;20503;-38
2022/12/20 06:16:48;;;;;;;7.93;4.90;;;9.90;99.90;;;;;;5050337;28;20578;-39
2022/12/20 06:19:14;;;;;;;4.93;4.03;;;10.00;99.90;;;;;;5045027;28;20608;-40
2022/12/20 06:21:40;;;;;;;4.83;4.33;;;9.90;99.90;;;;;;5050280;28;20190;-39
2022/12/20 06:24:06;;;;;;;4.97;4.40;;;9.90;99.90;;;;;;5050456;28;20595;-38
2022/12/20 06:26:35;;;;;;;4.90;4.40;;;9.90;99.90;;;;;;5050562;28;20416;-40
2022/12/20 06:29:09;;;;;;;4.57;4.17;;;9.90;99.90;;;;;;5050511;28;20429;-40
2022/12/20 06:31:35;;;;;;;4.10;3.67;;;9.90;99.90;;;;;;5050975;28;20482;-39
2022/12/20 06:34:01;;;;;;;5.83;4.50;;;9.90;99.90;;;;;;5050181;28;20434;-40
2022/12/20 06:36:26;;;;;;;4.63;4.23;;;9.90;99.90;;;;;;5050764;28;20563;-38
2022/12/20 06:38:52;;;;;;;4.83;4.10;;;10.00;99.90;;;;;;5048408;28;20464;-40
2022/12/20 06:41:18;;;;;;;4.70;4.30;;;10.00;99.90;;;;;;5050729;28;20239;-42
2022/12/20 06:43:44;;;;;;;4.50;4.10;;;10.00;99.90;;;;;;5050021;28;20202;-40
2022/12/20 06:46:09;;;;;;;3.97;3.67;;;9.90;99.90;;;;;;5047618;28;20474;-37
2022/12/20 06:48:35;;;;;;;4.10;3.70;;;10.10;99.90;;;;;;5048756;28;20213;-40
2022/12/20 06:51:01;;;;;;;4.70;3.97;;;10.00;99.90;;;;;;5050487;28;20255;-39
2022/12/20 06:53:26;;;;;;;9.10;5.27;;;9.90;99.90;;;;;;5045235;28;20568;-40
2022/12/20 06:55:52;;;;;;;5.47;3.90;;;10.10;99.90;;;;;;5049966;28;20347;-41
2022/12/20 06:58:19;;;;;;;5.90;3.93;;;10.00;99.90;;;;;;5050385;28;20221;-42
2022/12/20 07:00:45;;;;;;;5.47;4.20;;;10.00;99.90;;;;;;5049572;28;20178;-41
2022/12/20 07:03:11;;;;;;;4.70;4.30;;;10.00;99.90;;;;;;5046644;28;20519;-39
2022/12/20 07:05:36;;;;;;;4.53;4.13;;;10.00;99.90;;;;;;5042039;28;20453;-38
2022/12/20 07:08:03;;;;;;;6.50;4.03;;;10.10;99.90;;;;;;5048217;28;20190;-40
2022/12/20 07:10:33;;;;;;;4.60;4.20;;;10.10;99.90;;;;;;5045018;28;20193;-36
2022/12/20 07:12:59;;;;;;;4.50;4.10;;;10.10;99.90;;;;;;5046878;28;20432;-40
2022/12/20 07:15:25;;;;;;;4.10;3.70;;;10.10;99.90;;;;;;5050161;28;20930;-38
2022/12/20 07:17:50;;;;;;;6.63;4.30;;;10.10;99.90;;;;;;5050331;28;20190;-36
2022/12/20 07:20:16;;;;;;;7.47;3.47;;;10.10;99.90;;;;;;5048949;28;20190;-40
2022/12/20 07:22:42;;;;;;;4.00;3.60;;;10.10;99.90;;;;;;5049347;28;20193;-40
2022/12/20 07:25:09;;;;;;;6.53;4.80;;;10.10;99.90;;;;;;5049401;28;20420;-41
2022/12/20 07:27:35;;;;;;;5.03;4.10;;;10.10;99.90;;;;;;5049403;28;20464;-36
2022/12/20 07:30:00;;;;;;;3.63;3.30;;;10.10;99.90;;;;;;5040047;28;20472;-37
2022/12/20 07:32:26;;;;;;;4.50;3.53;;;10.10;99.90;;;;;;5040527;28;20669;-40
2022/12/20 07:34:52;;;;;;;6.20;3.77;;;10.10;99.90;;;;;;5040325;28;20196;-39
2022/12/20 07:37:18;;;;;;;5.47;3.80;;;10.10;99.90;;;;;;5049754;28;20214;-42
2022/12/20 07:39:43;;;;;;;6.77;3.87;;;10.10;99.90;;;;;;5047249;28;20432;-42
2022/12/20 07:42:10;;;;;;;4.70;3.80;;;10.10;99.90;;;;;;5048617;28;20182;-42
2022/12/20 07:44:36;;;;;;;4.10;3.70;;;10.10;99.90;;;;;;5029559;28;20240;-42
2022/12/20 07:47:01;;;;;;;4.50;4.10;;;10.10;99.90;;;;;;5034576;28;20528;-42
2022/12/20 07:49:27;;;;;;;4.63;4.03;;;10.10;99.90;;;;;;5039220;28;20702;-39
2022/12/20 07:51:57;;;;;;;7.03;3.57;;;10.10;99.90;;;;;;5042560;28;20182;-37
2022/12/20 07:54:31;;;;;;;4.97;3.73;;;10.10;99.90;;;;;;5036482;28;20221;-42
2022/12/20 07:57:02;;;;;;;5.10;3.77;;;10.10;99.90;;;;;;5040216;28;20463;-39
2022/12/20 07:59:38;;;;;;;4.50;4.10;;;10.10;99.90;;;;;;5028102;28;20457;-41
2022/12/20 08:02:05;;;;;;;4.23;3.73;;;10.20;99.90;;;;;;5028077;28;20846;-40
2022/12/20 08:04:32;;;;;;;4.07;3.70;;;10.20;99.90;;;;;;5026266;28;20565;-40
2022/12/20 08:07:00;;;;;;;5.23;3.40;;;10.20;99.90;;;;;;5028820;28;20433;-39
2022/12/20 08:09:30;;;;;;;3.93;3.50;;;10.20;99.90;;;;;;5027546;28;20499;-41
2022/12/20 08:11:58;;;;;;;4.30;3.73;;;10.30;99.90;;;;;;5043184;28;20428;-38
2022/12/20 08:14:23;;;;;;;4.00;3.20;;;10.30;99.90;;;;;;5028549;28;20511;-41
2022/12/20 08:16:49;;;;;;;4.97;3.43;;;10.30;99.90;;;;;;5038760;28;20555;-40
2022/12/20 08:19:15;;;;;;;3.90;3.50;;;10.30;99.90;;;;;;5028569;28;20298;-40
2022/12/20 08:21:40;;;;;;;3.97;3.67;;;10.30;99.90;;;;;;5028602;28;20218;-41
2022/12/20 08:24:07;;;;;;;5.70;3.10;;;10.30;99.90;;;;;;5028715;28;20274;-39
2022/12/20 08:26:40;;;;;;;3.73;3.43;;;10.30;99.90;;;;;;5028410;28;20198;-35
2022/12/20 08:29:07;;;;;;;5.53;3.37;;;10.30;99.90;;;;;;5028023;28;20527;-40
2022/12/20 08:31:36;;;;;;;5.27;3.37;;;10.30;99.90;;;;;;5040002;28;20939;-41
2022/12/20 08:34:02;;;;;;;3.87;3.50;;;10.30;99.90;;;;;;5037963;28;20498;-39
2022/12/20 08:36:28;;;;;;;3.93;3.53;;;10.30;99.90;;;;;;5033010;28;20476;-40
2022/12/20 08:38:53;;;;;;;5.37;3.33;;;10.30;99.90;;;;;;5037526;28;20579;-39
2022/12/20 08:41:19;;;;;;;4.40;3.90;;;10.30;99.90;;;;;;5032454;28;20190;-39
2022/12/20 08:43:45;;;;;;;3.50;3.20;;;10.40;99.90;;;;;;5037719;28;20649;-39
2022/12/20 08:46:11;;;;;;;3.30;3.00;;;10.40;99.90;;;;;;5047499;28;20312;-36
2022/12/20 08:48:37;;;;;;;5.33;3.70;;;10.40;99.90;;;;;;5046493;28;20181;-38
2022/12/20 08:51:07;;;;;;;5.50;3.90;;;10.40;99.90;;;;;;5047688;28;20527;-37
2022/12/20 08:53:34;;;;;;;4.20;3.80;;;10.50;99.90;;;;;;5047097;28;20491;-40
2022/12/20 08:56:05;;;;;;;3.90;3.20;;;10.50;99.90;;;;;;5038658;28;20621;-40
2022/12/20 08:58:31;;;;;;;4.20;3.37;;;10.50;99.90;;;;;;5039124;28;20924;-40
2022/12/20 09:01:00;;;;;;;5.60;3.20;;;10.50;99.90;;;;;;5045787;28;20435;-40
2022/12/20 09:03:30;;;;;;;4.10;3.40;;;10.50;99.90;;;;;;5047901;28;20189;-40
2022/12/20 09:05:57;;;;;;;4.03;2.87;;;10.50;99.90;;;;;;5047601;28;20451;-36
2022/12/20 09:08:23;;;;;;;3.90;3.03;;;10.50;99.90;;;;;;5046814;28;20542;-37
2022/12/20 09:10:48;;;;;;;4.60;3.53;;;10.50;99.90;;;;;;5047629;28;20527;-41
2022/12/20 09:13:14;;;;;;;3.70;2.80;;;10.50;99.90;;;;;;5047558;28;20926;-39
2022/12/20 09:15:41;;;;;;;3.00;2.70;;;10.60;99.90;;;;;;5047708;28;20217;-40
2022/12/20 09:18:06;;;;;;;4.20;2.83;;;10.60;99.90;;;;;;5034808;28;20255;-42
2022/12/20 09:20:32;;;;;;;3.13;2.87;;;10.60;99.90;;;;;;5027645;28;20922;-41
2022/12/20 09:22:59;;;;;;;3.27;2.57;;;10.60;99.90;;;;;;5027620;28;20200;-38
2022/12/20 09:25:26;;;;;;;3.40;2.93;;;10.60;99.90;;;;;;5027789;28;20432;-41
2022/12/20 09:27:55;;;;;;;6.90;3.13;;;10.70;99.90;;;;;;5027467;28;20853;-39
2022/12/20 09:30:23;;;;;;;3.27;2.67;;;10.70;99.90;;;;;;5046680;28;20797;-40
2022/12/20 09:32:49;;;;;;;4.27;2.67;;;10.70;99.90;;;;;;5047603;28;20428;-42
2022/12/20 09:35:14;;;;;;;3.03;2.70;;;10.70;99.90;;;;;;5047468;28;20657;-39
2022/12/20 09:37:40;;;;;;;3.43;3.13;;;10.60;99.90;;;;;;5047762;28;20213;-40
2022/12/20 09:40:17;;;;;;;3.63;3.30;;;10.70;99.90;;;;;;5027001;28;20273;-39
2022/12/20 09:42:42;;;;;;;5.00;3.30;;;10.70;99.90;;;;;;5027597;28;20603;-40
2022/12/20 09:45:15;;;;;;;4.67;3.80;;;10.70;99.90;;;;;;5027674;28;20433;-42
2022/12/20 09:47:41;;;;;;;5.20;2.90;;;10.70;99.90;;;;;;5027913;28;20222;-42
2022/12/20 09:50:13;;;;;;;3.63;3.23;;;10.70;99.90;;;;;;5027781;28;20527;-40
2022/12/20 09:53:25;;;;;;;3.77;2.60;;;10.70;99.90;;;;;;5031154;28;20195;-40
2022/12/20 09:56:09;;;;;;;2.70;2.50;;;10.70;99.90;;;;;;5022478;28;20733;-39
2022/12/20 09:58:49;;;;;;;3.43;2.80;;;10.70;99.90;;;;;;5051089;28;20701;-40
2022/12/20 10:01:27;;;;;;;3.50;3.20;;;10.70;99.90;;;;;;5050829;28;20477;-42
2022/12/20 10:03:54;;;;;;;3.17;2.90;;;10.70;99.90;;;;;;5050937;28;20431;-41
2022/12/20 10:06:59;;;;;;;3.60;3.20;;;10.80;99.90;;;;;;5049832;28;20442;-42
2022/12/20 10:09:55;;;;;;;3.10;2.80;;;10.80;99.90;;;;;;5049297;28;20805;-39
2022/12/20 10:12:39;;;;;;;4.77;3.30;;;10.80;99.90;;;;;;5050964;28;20419;-38
2022/12/20 10:15:12;;;;;;;4.20;3.20;;;10.80;99.90;;;;;;5049869;28;20771;-37
2022/12/20 10:17:54;;;;;;;3.57;3.27;;;10.90;99.90;;;;;;5035345;28;20465;-41
2022/12/20 10:20:44;;;;;;;2.93;2.63;;;11.10;99.90;;;;;;5030338;28;20931;-40
2022/12/20 10:23:17;;;;;;;3.60;3.03;;;11.20;99.90;;;;;;5030594;28;20447;-36
2022/12/20 10:25:43;;;;;;;4.47;2.80;;;11.20;99.90;;;;;;5030872;28;20424;-39
2022/12/20 10:28:15;;;;;;;5.93;3.30;;;11.20;99.90;;;;;;5030820;28;20884;-40
2022/12/20 10:30:41;;;;;;;3.50;2.90;;;11.20;99.90;;;;;;5030121;28;20510;-40
2022/12/20 10:33:20;;;;;;;4.13;3.07;;;11.20;99.90;;;;;;5030619;28;20435;-41
2022/12/20 10:35:46;;;;;;;3.00;2.80;;;11.10;99.90;;;;;;5030464;28;20467;-40
2022/12/20 10:38:16;;;;;;;3.63;3.20;;;11.10;99.90;;;;;;5035052;28;20428;-40
2022/12/20 10:41:02;;;;;;;5.73;2.67;;;11.10;99.90;;;;;;5033686;28;20425;-41
2022/12/20 10:43:41;;;;;;;5.63;2.30;;;11.10;99.90;;;;;;5028833;28;20514;-39
2022/12/20 10:46:07;;;;;;;3.63;3.20;;;11.10;99.90;;;;;;5038433;28;20428;-37
2022/12/20 10:48:39;;;;;;;6.10;2.90;;;11.10;99.90;;;;;;5049641;28;20456;-39
2022/12/20 10:51:13;;;;;;;3.53;3.00;;;11.20;99.90;;;;;;5050373;28;20435;-40
2022/12/20 10:53:52;;;;;;;4.23;2.60;;;11.20;99.90;;;;;;5049644;28;20427;-35
2022/12/20 10:56:33;;;;;;;6.53;2.80;;;11.30;99.90;;;;;;5050380;28;20463;-36
2022/12/20 10:59:00;;;;;;;3.40;2.90;;;11.30;99.90;;;;;;5047983;28;20427;-38
2022/12/20 11:01:30;;;;;;;3.60;2.80;;;11.30;99.90;;;;;;5050108;28;20754;-39
2022/12/20 11:04:05;;;;;;;4.60;2.77;;;11.40;99.90;;;;;;5049772;28;20512;-39
2022/12/20 11:06:37;;;;;;;3.17;2.70;;;11.40;99.90;;;;;;5050314;28;20423;-40
2022/12/20 11:09:18;;;;;;;3.23;2.53;;;11.40;99.90;;;;;;5048933;28;20424;-40
2022/12/20 11:12:12;;;;;;;2.60;2.40;;;11.40;99.90;;;;;;5050260;28;20424;-40
2022/12/20 11:14:40;;;;;;;4.60;2.70;;;11.50;99.90;;;;;;5049875;28;20428;-39
2022/12/20 11:17:32;;;;;;;2.50;2.30;;;11.50;99.90;;;;;;5049898;28;20800;-40
2022/12/20 11:20:29;;;;;;;2.43;2.23;;;11.60;99.90;;;;;;5049702;28;20491;-37
2022/12/20 11:23:25;;;;;;;2.30;2.10;;;11.70;99.90;;;;;;5049594;28;20425;-39
2022/12/20 11:26:20;;;;;;;2.67;2.20;;;11.60;99.90;;;;;;5050089;28;20584;-41
2022/12/20 11:29:21;;;;;;;4.03;2.50;;;11.70;99.90;;;;;;5049190;28;20574;-38
2022/12/20 11:31:55;;;;;;;2.53;2.30;;;11.70;99.90;;;;;;5036885;28;20566;-40
2022/12/20 11:34:24;;;;;;;2.43;2.23;;;11.70;99.90;;;;;;5049281;28;20519;-37
2022/12/20 11:36:53;;;;;;;3.10;2.80;;;11.70;99.90;;;;;;5049621;28;20468;-39
2022/12/20 11:39:32;;;;;;;2.50;2.20;;;11.80;99.90;;;;;;5048725;28;20425;-40
2022/12/20 11:42:16;;;;;;;6.60;3.40;;;11.80;99.90;;;;;;5050092;28;20416;-40
2022/12/20 11:45:01;;;;;;;2.50;2.17;;;11.80;99.90;;;;;;5047690;28;20694;-41
2022/12/20 11:47:54;;;;;;;3.27;2.20;;;11.80;99.90;;;;;;5049381;28;20421;-39
2022/12/20 11:50:41;;;;;;;3.70;2.10;;;11.80;99.90;;;;;;5045579;28;20801;-40
2022/12/20 11:53:19;;;;;;;2.40;2.20;;;11.70;99.90;;;;;;5049362;28;20444;-43
2022/12/20 11:55:50;;;;;;;4.20;2.43;;;11.70;99.90;;;;;;5048689;28;20456;-37
2022/12/20 11:58:25;;;;;;;3.53;2.20;;;11.70;99.90;;;;;;5049510;28;20427;-41
2022/12/20 12:01:02;;;;;;;5.63;2.90;;;11.70;99.90;;;;;;5048747;28;20416;-38
2022/12/20 12:03:33;;;;;;;3.30;2.03;;;11.70;99.90;;;;;;5049003;28;20897;-38
2022/12/20 12:06:16;;;;;;;2.43;2.23;;;11.70;99.90;;;;;;5048562;28;20448;-38
2022/12/20 12:09:14;;;;;;;2.57;2.37;;;11.70;99.90;;;;;;5048144;28;20809;-39
2022/12/20 12:12:00;;;;;;;2.40;1.80;;;11.70;99.90;;;;;;5045666;28;20432;-37
2022/12/20 12:14:52;;;;;;;4.17;2.53;;;11.60;99.90;;;;;;5047721;28;20435;-40
2022/12/20 12:17:46;;;;;;;3.77;2.50;;;11.60;99.90;;;;;;5048703;28;20455;-38
2022/12/20 12:20:35;;;;;;;3.40;2.77;;;11.60;99.90;;;;;;5048446;28;20478;-41
2022/12/20 12:23:25;;;;;;;3.00;2.73;;;11.60;99.90;;;;;;5048140;28;20462;-40
2022/12/20 12:25:51;;;;;;;3.50;2.67;;;11.60;99.90;;;;;;5048969;28;20423;-40
2022/12/20 12:28:19;;;;;;;3.13;2.30;;;11.60;99.90;;;;;;5048788;28;20412;-37
2022/12/20 12:30:57;;;;;;;3.17;2.23;;;11.60;99.90;;;;;;5048532;28;20224;-40
2022/12/20 12:33:33;;;;;;;2.77;2.20;;;11.60;99.90;;;;;;5048866;28;20506;-40
2022/12/20 12:36:14;;;;;;;3.83;2.40;;;11.60;99.90;;;;;;5046771;28;20455;-37
2022/12/20 12:38:42;;;;;;;2.43;2.13;;;11.50;99.90;;;;;;5048251;28;20831;-40
2022/12/20 12:41:50;;;;;;;3.80;2.40;;;11.50;99.90;;;;;;5048143;28;20420;-39
2022/12/20 12:44:28;;;;;;;4.00;2.37;;;11.50;99.90;;;;;;5037402;28;20456;-38
2022/12/20 12:47:06;;;;;;;3.00;1.90;;;11.50;99.90;;;;;;5048005;28;20412;-38
2022/12/20 12:49:33;;;;;;;2.77;2.40;;;11.60;99.90;;;;;;5048103;28;20423;-40
2022/12/20 12:52:01;;;;;;;3.57;2.53;;;11.60;99.90;;;;;;5047810;28;20724;-39
2022/12/20 12:54:33;;;;;;;2.57;2.20;;;11.60;99.90;;;;;;5048292;28;20474;-41
2022/12/20 12:57:12;;;;;;;2.50;2.30;;;11.60;99.90;;;;;;5047932;28;20505;-37
2022/12/20 12:59:38;;;;;;;4.10;2.27;;;11.60;99.90;;;;;;5048031;28;20418;-40
2022/12/20 13:02:12;;;;;;;3.53;2.43;;;11.60;99.90;;;;;;5048151;28;20420;-40
2022/12/20 13:04:59;;;;;;;4.67;2.43;;;11.60;99.90;;;;;;5047481;28;20197;-39
2022/12/20 13:07:30;;;;;;;2.50;2.30;;;11.60;99.90;;;;;;5046730;28;21023;-39
2022/12/20 13:09:57;;;;;;;2.93;2.63;;;11.60;99.90;;;;;;5046143;28;20424;-37
2022/12/20 13:12:38;;;;;;;2.53;2.30;;;11.60;99.90;;;;;;5048146;28;20420;-39